createdAt,value
2023-01-19T00:01:43.256Z,1.08
2023-01-19T00:04:12.475Z,1.35
2023-01-19T00:06:39.914Z,1.77
2023-01-19T00:09:08.697Z,0.95
2023-01-19T00:11:42.532Z,0.60
2023-01-19T00:14:19.179Z,0.60
2023-01-19T00:16:46.139Z,0.85
2023-01-19T00:19:18.425Z,0.75
2023-01-19T00:21:45.203Z,1.00
2023-01-19T00:24:12.209Z,1.02
2023-01-19T00:26:40.582Z,1.13
2023-01-19T00:29:07.518Z,1.40
2023-01-19T00:31:44.828Z,0.93
2023-01-19T00:34:12.720Z,1.13
2023-01-19T00:36:39.547Z,1.27
2023-01-19T00:39:06.596Z,0.57
2023-01-19T00:41:36.987Z,0.98
2023-01-19T00:44:09.555Z,0.77
2023-01-19T00:46:40.164Z,1.00
2023-01-19T00:49:09.182Z,1.75
2023-01-19T00:51:36.762Z,1.23
2023-01-19T00:54:05.058Z,1.50
2023-01-19T00:56:32.138Z,1.20
2023-01-19T00:58:59.245Z,1.40
2023-01-19T01:01:45.324Z,1.90
2023-01-19T01:04:13.145Z,1.58
2023-01-19T01:06:40.051Z,1.40
2023-01-19T01:09:06.889Z,1.42
2023-01-19T01:11:33.848Z,1.75
2023-01-19T01:14:00.918Z,2.53
2023-01-19T01:16:29.454Z,1.58
2023-01-19T01:18:56.495Z,1.30
2023-01-19T01:21:23.349Z,1.45
2023-01-19T01:23:50.581Z,1.10
2023-01-19T01:26:17.806Z,1.40
2023-01-19T01:28:44.841Z,1.10
2023-01-19T01:31:11.877Z,1.10
2023-01-19T01:33:42.021Z,1.23
2023-01-19T01:36:10.100Z,0.90
2023-01-19T01:38:38.286Z,1.20
2023-01-19T01:41:06.577Z,0.70
2023-01-19T01:43:48.668Z,0.75
2023-01-19T01:46:19.070Z,0.73
2023-01-19T01:48:52.830Z,1.00
2023-01-19T01:51:25.770Z,1.23
2023-01-19T01:54:11.552Z,0.90
2023-01-19T01:56:41.320Z,1.33
2023-01-19T01:59:12.320Z,0.93
2023-01-19T02:01:39.853Z,0.98
2023-01-19T02:04:08.363Z,0.65
2023-01-19T02:06:35.748Z,1.02
2023-01-19T02:09:10.900Z,0.82
2023-01-19T02:11:46.013Z,0.68
2023-01-19T02:14:13.915Z,0.65
2023-01-19T02:16:40.988Z,0.90
2023-01-19T02:19:18.979Z,0.63
2023-01-19T02:21:57.454Z,0.70
2023-01-19T02:24:28.875Z,1.38
2023-01-19T02:26:57.078Z,1.00
2023-01-19T02:29:26.635Z,0.70
2023-01-19T02:31:53.750Z,0.70
2023-01-19T02:34:24.094Z,0.52
2023-01-19T02:36:57.891Z,0.82
2023-01-19T02:39:31.364Z,0.55
2023-01-19T02:42:03.303Z,0.70
2023-01-19T02:44:31.046Z,0.52
2023-01-19T02:47:10.464Z,0.50
2023-01-19T02:49:37.231Z,0.65
2023-01-19T02:52:04.724Z,0.40
2023-01-19T02:54:49.492Z,0.80
2023-01-19T02:57:42.489Z,0.60
2023-01-19T03:00:28.970Z,0.40
2023-01-19T03:03:20.211Z,0.50
2023-01-19T03:05:57.839Z,0.50
2023-01-19T03:08:44.220Z,0.60
2023-01-19T03:11:14.058Z,0.60
2023-01-19T03:13:45.696Z,0.80
2023-01-19T03:16:21.737Z,0.68
2023-01-19T03:18:53.640Z,0.68
2023-01-19T03:21:24.808Z,0.50
2023-01-19T03:23:53.586Z,0.57
2023-01-19T03:26:27.009Z,0.50
2023-01-19T03:28:56.608Z,0.80
2023-01-19T03:31:26.161Z,0.50
2023-01-19T03:33:57.050Z,0.70
2023-01-19T03:36:27.663Z,0.60
2023-01-19T03:38:56.999Z,0.50
2023-01-19T03:41:27.815Z,0.60
2023-01-19T03:43:55.905Z,0.98
2023-01-19T03:46:24.675Z,0.60
2023-01-19T03:48:52.381Z,0.50
2023-01-19T03:51:19.471Z,0.80
2023-01-19T03:53:46.216Z,1.08
2023-01-19T03:56:20.045Z,1.20
2023-01-19T03:58:48.533Z,0.50
2023-01-19T04:01:16.366Z,0.75
2023-01-19T04:03:43.563Z,1.10
2023-01-19T04:06:10.818Z,1.13
2023-01-19T04:08:37.818Z,1.02
2023-01-19T04:11:04.909Z,1.35
2023-01-19T04:13:31.703Z,1.13
2023-01-19T04:16:02.447Z,0.77
2023-01-19T04:18:30.232Z,1.73
2023-01-19T04:21:00.745Z,1.40
2023-01-19T04:23:27.627Z,1.50
2023-01-19T04:25:57.998Z,1.58
2023-01-19T04:28:25.468Z,1.20
2023-01-19T04:30:52.556Z,1.13
2023-01-19T04:33:21.432Z,1.15
2023-01-19T04:35:53.567Z,1.35
2023-01-19T04:38:21.097Z,0.93
2023-01-19T04:40:49.081Z,0.82
2023-01-19T04:43:16.246Z,0.88
2023-01-19T04:45:43.277Z,0.50
2023-01-19T04:48:10.333Z,0.57
2023-01-19T04:50:38.643Z,0.50
2023-01-19T04:53:05.701Z,0.50
2023-01-19T04:55:32.459Z,0.77
2023-01-19T04:57:59.366Z,0.52
2023-01-19T05:00:26.486Z,0.73
2023-01-19T05:02:53.619Z,0.50
2023-01-19T05:05:20.655Z,0.45
2023-01-19T05:07:49.920Z,0.65
2023-01-19T05:10:17.239Z,0.70
2023-01-19T05:12:44.205Z,0.52
2023-01-19T05:15:11.570Z,1.73
2023-01-19T05:17:38.605Z,0.93
2023-01-19T05:20:09.302Z,0.60
2023-01-19T05:22:36.185Z,0.70
2023-01-19T05:25:05.179Z,0.65
2023-01-19T05:27:34.308Z,1.00
2023-01-19T05:30:01.115Z,0.82
2023-01-19T05:32:28.171Z,1.23
2023-01-19T05:34:57.425Z,1.40
2023-01-19T05:37:24.370Z,0.93
2023-01-19T05:39:53.575Z,1.27
2023-01-19T05:42:23.095Z,1.00
2023-01-19T05:44:49.834Z,1.20
2023-01-19T05:47:17.001Z,1.65
2023-01-19T05:49:43.719Z,1.05
2023-01-19T05:52:10.490Z,1.00
2023-01-19T05:54:37.401Z,1.00
2023-01-19T05:57:04.097Z,0.95
2023-01-19T05:59:32.400Z,1.00
2023-01-19T06:01:59.648Z,1.40
2023-01-19T06:04:26.417Z,1.38
2023-01-19T06:06:53.217Z,1.00
2023-01-19T06:09:20.001Z,1.20
2023-01-19T06:11:48.368Z,1.77
2023-01-19T06:14:15.164Z,1.20
2023-01-19T06:16:43.918Z,1.05
2023-01-19T06:19:10.743Z,1.17
2023-01-19T06:21:37.806Z,1.30
2023-01-19T06:24:05.569Z,1.70
2023-01-19T06:26:32.356Z,1.73
2023-01-19T06:28:59.172Z,1.65
2023-01-19T06:31:26.273Z,1.98
2023-01-19T06:33:54.824Z,2.45
2023-01-19T06:36:21.552Z,1.50
2023-01-19T06:38:48.873Z,2.17
2023-01-19T06:41:21.668Z,1.63
2023-01-19T06:43:48.483Z,2.22
2023-01-19T06:46:20.317Z,1.85
2023-01-19T06:48:49.409Z,2.05
2023-01-19T06:51:17.806Z,1.65
2023-01-19T06:53:44.687Z,2.60
2023-01-19T06:56:11.405Z,1.70
2023-01-19T06:58:38.322Z,1.65
2023-01-19T07:01:06.937Z,2.40
2023-01-19T07:03:34.667Z,1.52
2023-01-19T07:06:01.756Z,2.17
2023-01-19T07:08:30.141Z,2.78
2023-01-19T07:11:25.850Z,1.65
2023-01-19T07:13:47.862Z,2.22
2023-01-19T07:16:14.944Z,3.13
2023-01-19T07:18:41.769Z,2.95
2023-01-19T07:21:09.032Z,2.35
2023-01-19T07:23:37.281Z,3.15
2023-01-19T07:26:04.320Z,2.70
2023-01-19T07:28:31.718Z,2.10
2023-01-19T07:30:59.101Z,1.95
2023-01-19T07:33:28.822Z,2.22
2023-01-19T07:35:55.893Z,2.53
2023-01-19T07:38:23.241Z,2.03
2023-01-19T07:41:00.441Z,2.10
2023-01-19T07:43:27.159Z,2.33
2023-01-19T07:45:56.116Z,2.30
2023-01-19T07:48:22.956Z,2.22
2023-01-19T07:50:49.689Z,2.08
2023-01-19T07:53:16.528Z,2.65
2023-01-19T07:55:43.409Z,2.45
2023-01-19T07:58:11.619Z,3.00
2023-01-19T08:00:46.123Z,2.75
2023-01-19T08:03:12.957Z,2.38
2023-01-19T08:05:39.737Z,3.38
2023-01-19T08:08:06.448Z,2.45
2023-01-19T08:10:33.176Z,3.20
2023-01-19T08:13:00.482Z,2.65
2023-01-19T08:15:29.278Z,2.72
2023-01-19T08:17:57.296Z,3.50
2023-01-19T08:20:24.482Z,3.85
2023-01-19T08:22:51.585Z,3.63
2023-01-19T08:25:18.460Z,2.67
2023-01-19T08:27:45.195Z,3.50
2023-01-19T08:30:15.192Z,3.28
2023-01-19T08:32:43.524Z,3.47
2023-01-19T08:35:10.288Z,4.15
2023-01-19T08:37:37.193Z,3.10
2023-01-19T08:40:05.128Z,2.40
2023-01-19T08:42:31.834Z,2.28
2023-01-19T08:44:58.840Z,3.00
2023-01-19T08:47:26.066Z,2.75
2023-01-19T08:49:54.432Z,2.45
2023-01-19T08:52:21.171Z,2.70
2023-01-19T08:54:48.157Z,2.65
2023-01-19T08:57:14.891Z,3.85
2023-01-19T08:59:41.698Z,3.67
2023-01-19T09:02:10.256Z,2.33
2023-01-19T09:04:40.049Z,2.22
2023-01-19T09:07:08.591Z,2.70
2023-01-19T09:09:35.323Z,2.42
2023-01-19T09:12:02.210Z,2.83
2023-01-19T09:14:29.230Z,2.72
2023-01-19T09:16:56.592Z,2.88
2023-01-19T09:19:23.711Z,3.53
2023-01-19T09:21:50.463Z,2.35
2023-01-19T09:24:18.553Z,2.40
2023-01-19T09:26:45.317Z,1.90
2023-01-19T09:29:13.065Z,3.05
2023-01-19T09:31:39.938Z,2.00
2023-01-19T09:34:06.806Z,2.58
2023-01-19T09:36:33.586Z,2.33
2023-01-19T09:39:00.535Z,2.40
2023-01-19T09:41:29.560Z,1.95
2023-01-19T09:43:59.851Z,2.00
2023-01-19T09:46:33.398Z,2.13
2023-01-19T09:49:02.913Z,1.50
2023-01-19T09:51:35.020Z,1.95
2023-01-19T09:54:09.650Z,1.90
2023-01-19T09:56:38.239Z,3.50
2023-01-19T09:59:24.316Z,2.60
2023-01-19T10:02:14.502Z,2.17
2023-01-19T10:04:43.264Z,2.05
2023-01-19T10:07:20.136Z,1.80
2023-01-19T10:10:05.208Z,1.75
2023-01-19T10:12:43.646Z,1.52
2023-01-19T10:15:20.457Z,1.70
2023-01-19T10:17:56.543Z,1.50
2023-01-19T10:20:29.595Z,1.55
2023-01-19T10:22:59.225Z,1.75
2023-01-19T10:25:27.371Z,2.15
2023-01-19T10:27:56.715Z,1.30
2023-01-19T10:30:26.259Z,1.77
2023-01-19T10:32:53.438Z,2.10
2023-01-19T10:35:22.715Z,1.92
2023-01-19T10:37:50.196Z,2.63
2023-01-19T10:40:27.187Z,1.42
2023-01-19T10:42:56.933Z,1.25
2023-01-19T10:45:25.831Z,1.98
2023-01-19T10:47:55.035Z,1.13
2023-01-19T10:50:24.912Z,2.80
2023-01-19T10:52:52.820Z,2.15
2023-01-19T10:55:29.304Z,1.52
2023-01-19T10:57:58.780Z,1.40
2023-01-19T11:00:33.480Z,1.80
2023-01-19T11:03:01.298Z,1.70
2023-01-19T11:05:30.291Z,0.90
2023-01-19T11:07:57.352Z,1.00
2023-01-19T11:10:26.629Z,1.90
2023-01-19T11:13:00.310Z,1.08
2023-01-19T11:15:31.663Z,1.27
2023-01-19T11:17:59.298Z,1.02
2023-01-19T11:20:28.767Z,1.80
2023-01-19T11:23:09.776Z,1.15
2023-01-19T11:25:37.100Z,1.17
2023-01-19T11:28:18.794Z,1.23
2023-01-19T11:30:56.158Z,1.50
2023-01-19T11:33:25.482Z,1.33
2023-01-19T11:36:02.944Z,1.00
2023-01-19T11:38:29.715Z,1.33
2023-01-19T11:40:59.055Z,1.23
2023-01-19T11:43:43.499Z,1.75
2023-01-19T11:46:16.398Z,1.45
2023-01-19T11:48:47.930Z,1.35
2023-01-19T11:51:19.045Z,0.88
2023-01-19T11:53:51.543Z,1.27
2023-01-19T11:56:22.575Z,1.05
2023-01-19T11:58:50.842Z,1.10
2023-01-19T12:01:23.486Z,0.90
2023-01-19T12:03:58.619Z,1.33
2023-01-19T12:06:29.594Z,1.13
2023-01-19T12:09:00.548Z,1.00
2023-01-19T12:11:32.713Z,0.82
2023-01-19T12:14:01.934Z,1.05
2023-01-19T12:16:30.326Z,1.20
2023-01-19T12:19:01.587Z,1.15
2023-01-19T12:21:28.693Z,0.90
2023-01-19T12:24:06.031Z,0.80
2023-01-19T12:26:37.075Z,1.00
2023-01-19T12:29:11.686Z,1.33
2023-01-19T12:31:39.330Z,0.90
2023-01-19T12:34:38.932Z,1.58
2023-01-19T12:37:27.600Z,0.80
2023-01-19T12:39:56.584Z,1.48
2023-01-19T12:42:24.468Z,1.83
2023-01-19T12:45:04.714Z,1.05
2023-01-19T12:47:31.948Z,1.17
2023-01-19T12:50:03.953Z,1.10
2023-01-19T12:52:32.824Z,0.98
2023-01-19T12:55:03.849Z,1.00
2023-01-19T12:57:35.849Z,0.85
2023-01-19T13:00:07.561Z,1.05
2023-01-19T13:02:53.248Z,0.98
2023-01-19T13:05:40.524Z,1.25
2023-01-19T13:08:15.933Z,0.95
2023-01-19T13:11:13.648Z,1.08
2023-01-19T13:13:42.117Z,0.80
2023-01-19T13:16:51.309Z,0.95
2023-01-19T13:19:22.189Z,0.73
2023-01-19T13:21:49.308Z,0.98
2023-01-19T13:24:19.947Z,1.67
2023-01-19T13:26:55.635Z,1.23
2023-01-19T13:29:29.860Z,1.00
2023-01-19T13:31:59.983Z,0.90
2023-01-19T13:34:28.300Z,0.93
2023-01-19T13:36:57.267Z,0.82
2023-01-19T13:39:28.795Z,0.73
2023-01-19T13:41:59.909Z,1.20
2023-01-19T13:44:29.848Z,0.82
2023-01-19T13:46:58.941Z,0.70
2023-01-19T13:49:30.667Z,0.70
2023-01-19T13:52:11.895Z,1.23
2023-01-19T13:54:50.659Z,1.05
2023-01-19T13:57:25.359Z,1.00
2023-01-19T14:00:05.716Z,0.75
2023-01-19T14:02:34.415Z,0.70
2023-01-19T14:05:13.947Z,0.88
2023-01-19T14:07:45.437Z,0.70
2023-01-19T14:10:15.027Z,0.80
2023-01-19T14:12:58.524Z,0.82
2023-01-19T14:15:30.123Z,0.63
2023-01-19T14:18:25.476Z,0.77
2023-01-19T14:20:58.320Z,0.82
2023-01-19T14:23:52.616Z,1.10
2023-01-19T14:26:48.516Z,1.33
2023-01-19T14:29:27.102Z,0.98
2023-01-19T14:32:07.309Z,0.45
2023-01-19T14:34:39.980Z,0.85
2023-01-19T14:37:16.374Z,1.38
2023-01-19T14:39:45.673Z,0.90
2023-01-19T14:42:21.059Z,0.80
2023-01-19T14:44:50.767Z,0.70
2023-01-19T14:47:26.883Z,1.08
2023-01-19T14:49:58.151Z,0.70
2023-01-19T14:54:55.071Z,1.05
2023-01-19T14:57:22.128Z,1.25
2023-01-19T14:59:49.178Z,1.33
2023-01-19T15:02:16.481Z,0.88
2023-01-19T15:04:43.303Z,0.85
2023-01-19T15:07:17.844Z,1.52
2023-01-19T15:09:45.076Z,1.15
2023-01-19T15:12:17.628Z,1.60
2023-01-19T15:14:45.136Z,1.40
2023-01-19T15:17:17.658Z,0.88
2023-01-19T15:19:44.493Z,1.38
2023-01-19T15:22:13.091Z,1.45
2023-01-19T15:24:41.469Z,1.38
2023-01-19T15:27:10.866Z,1.73
2023-01-19T15:29:39.226Z,1.65
2023-01-19T15:32:07.235Z,1.50
2023-01-19T15:34:33.936Z,1.10
2023-01-19T15:37:00.977Z,1.65
2023-01-19T15:39:29.209Z,1.45
2023-01-19T15:41:56.180Z,1.58
2023-01-19T15:44:23.154Z,1.50
2023-01-19T15:46:49.915Z,1.73
2023-01-19T15:49:16.908Z,1.13
2023-01-19T15:51:43.731Z,2.10
2023-01-19T15:54:13.204Z,1.60
2023-01-19T15:56:41.429Z,1.95
2023-01-19T15:59:08.647Z,1.58
2023-01-19T16:01:35.498Z,1.77
2023-01-19T16:04:04.595Z,1.50
2023-01-19T16:06:31.725Z,1.33
2023-01-19T16:08:58.689Z,2.42
2023-01-19T16:11:26.117Z,3.05
2023-01-19T16:13:54.237Z,3.20
2023-01-19T16:16:22.679Z,2.45
2023-01-19T16:18:49.996Z,3.10
2023-01-19T16:21:17.280Z,2.65
2023-01-19T16:23:44.201Z,2.25
2023-01-19T16:26:25.107Z,2.22
2023-01-19T16:28:51.956Z,2.65
2023-01-19T16:31:20.244Z,3.22
2023-01-19T16:33:47.141Z,2.55
2023-01-19T16:36:18.978Z,2.42
2023-01-19T16:38:45.764Z,2.50
2023-01-19T16:41:12.554Z,2.00
2023-01-19T16:43:39.465Z,2.40
2023-01-19T16:46:07.432Z,2.20
2023-01-19T16:48:37.869Z,2.88
2023-01-19T16:51:06.361Z,2.67
2023-01-19T16:53:34.374Z,1.83
2023-01-19T16:56:04.915Z,1.88
2023-01-19T16:58:34.769Z,2.60
2023-01-19T17:01:06.953Z,1.67
2023-01-19T17:03:35.646Z,2.08
2023-01-19T17:06:02.810Z,2.08
2023-01-19T17:08:29.710Z,2.25
2023-01-19T17:10:56.605Z,2.85
2023-01-19T17:13:23.448Z,3.30
2023-01-19T17:15:50.275Z,3.72
2023-01-19T17:18:17.043Z,3.38
2023-01-19T17:20:45.837Z,3.10
2023-01-19T17:23:12.839Z,2.83
2023-01-19T17:25:43.714Z,3.08
2023-01-19T17:28:10.568Z,2.00
2023-01-19T17:30:42.047Z,5.15
2023-01-19T17:33:09.017Z,3.70
2023-01-19T17:35:35.958Z,3.03
2023-01-19T17:38:04.479Z,2.90
2023-01-19T17:40:38.675Z,6.18
2023-01-19T17:43:07.465Z,3.90
2023-01-19T17:45:35.096Z,7.20
2023-01-19T17:48:01.933Z,5.57
2023-01-19T17:50:29.008Z,3.10
2023-01-19T17:52:55.783Z,3.13
2023-01-19T17:55:24.505Z,3.15
2023-01-19T17:57:51.744Z,3.53
2023-01-19T18:00:19.337Z,3.15
2023-01-19T18:02:50.263Z,3.05
2023-01-19T18:05:17.267Z,3.40
2023-01-19T18:07:44.219Z,4.00
2023-01-19T18:10:11.778Z,4.38
2023-01-19T18:12:40.415Z,4.70
2023-01-19T18:15:11.021Z,4.25
2023-01-19T18:17:37.981Z,3.70
2023-01-19T18:20:05.952Z,3.75
2023-01-19T18:22:32.852Z,3.78
2023-01-19T18:24:59.749Z,3.50
2023-01-19T18:27:26.638Z,3.78
2023-01-19T18:29:55.315Z,3.63
2023-01-19T18:32:22.055Z,3.35
2023-01-19T18:34:48.927Z,4.00
2023-01-19T18:37:16.104Z,4.68
2023-01-19T18:39:42.802Z,4.57
2023-01-19T18:42:09.980Z,4.10
2023-01-19T18:44:36.814Z,4.38
2023-01-19T18:47:07.923Z,3.88
2023-01-19T18:49:35.316Z,4.20
2023-01-19T18:52:02.075Z,4.13
2023-01-19T18:54:28.886Z,4.22
2023-01-19T18:56:55.828Z,4.40
2023-01-19T18:59:22.788Z,4.20
2023-01-19T19:01:49.812Z,4.13
2023-01-19T19:04:18.573Z,4.15
2023-01-19T19:06:45.386Z,4.40
2023-01-19T19:09:12.172Z,4.90
2023-01-19T19:11:39.600Z,5.28
2023-01-19T19:14:06.843Z,5.97
2023-01-19T19:16:36.208Z,4.50
2023-01-19T19:19:03.941Z,6.30
2023-01-19T19:21:32.042Z,7.13
2023-01-19T19:23:58.862Z,5.60
2023-01-19T19:26:26.562Z,6.28
2023-01-19T19:28:53.658Z,4.90
2023-01-19T19:31:23.463Z,4.45
2023-01-19T19:33:53.036Z,3.80
2023-01-19T19:36:21.242Z,6.90
2023-01-19T19:38:49.952Z,8.80
2023-01-19T19:41:19.415Z,6.95
2023-01-19T19:43:50.176Z,5.00
2023-01-19T19:46:19.352Z,3.72
2023-01-19T19:48:46.734Z,3.20
2023-01-19T19:51:19.432Z,2.78
2023-01-19T19:53:47.882Z,2.60
2023-01-19T19:56:17.316Z,2.40
2023-01-19T19:58:46.442Z,2.55
2023-01-19T20:01:15.787Z,2.10
2023-01-19T20:03:43.025Z,1.67
2023-01-19T20:06:12.406Z,1.98
2023-01-19T20:08:39.307Z,1.45
2023-01-19T20:11:25.438Z,1.30
2023-01-19T20:13:52.898Z,1.60
2023-01-19T20:16:22.164Z,1.80
2023-01-19T20:18:50.723Z,1.27
2023-01-19T20:21:19.720Z,1.88
2023-01-19T20:23:48.000Z,1.85
2023-01-19T20:26:17.424Z,2.15
2023-01-19T20:28:48.269Z,2.10
2023-01-19T20:31:17.750Z,1.38
2023-01-19T20:33:45.260Z,3.03
2023-01-19T20:36:12.631Z,3.33
2023-01-19T20:38:42.396Z,2.22
2023-01-19T20:41:11.528Z,1.73
2023-01-19T20:43:41.960Z,1.50
2023-01-19T20:46:10.692Z,2.15
2023-01-19T20:48:39.677Z,1.75
2023-01-19T20:51:08.357Z,2.63
2023-01-19T20:53:35.687Z,2.90
2023-01-19T20:56:06.005Z,2.30
2023-01-19T20:58:33.362Z,2.47
2023-01-19T21:01:00.880Z,1.95
2023-01-19T21:03:29.231Z,1.70
2023-01-19T21:05:58.638Z,1.85
2023-01-19T21:08:28.110Z,2.23
2023-01-19T21:10:55.820Z,1.95
2023-01-19T21:13:22.987Z,2.17
2023-01-19T21:15:49.887Z,2.00
2023-01-19T21:18:16.804Z,2.60
2023-01-19T21:20:47.725Z,2.40
2023-01-19T21:23:14.580Z,2.40
2023-01-19T21:25:51.618Z,2.42
2023-01-19T21:28:18.644Z,2.42
2023-01-19T21:30:46.302Z,2.60
2023-01-19T21:33:13.578Z,2.60
2023-01-19T21:35:42.431Z,3.15
2023-01-19T21:38:11.023Z,3.20
2023-01-19T21:40:38.133Z,3.25
2023-01-19T21:43:04.911Z,3.83
2023-01-19T21:45:31.739Z,3.80
2023-01-19T21:47:59.032Z,2.95
2023-01-19T21:50:25.904Z,2.95
2023-01-19T21:52:53.265Z,2.33
2023-01-19T21:55:21.433Z,3.33
2023-01-19T21:57:51.863Z,2.83
2023-01-19T22:00:19.064Z,2.67
2023-01-19T22:02:58.595Z,2.92
2023-01-19T22:05:29.677Z,3.05
2023-01-19T22:07:56.923Z,3.05
2023-01-19T22:10:26.129Z,3.15
2023-01-19T22:12:52.853Z,2.90
2023-01-19T22:15:22.150Z,2.58
2023-01-19T22:17:51.078Z,3.08
2023-01-19T22:20:17.914Z,3.17
2023-01-19T22:22:44.821Z,2.72
2023-01-19T22:25:11.891Z,2.72
2023-01-19T22:27:41.739Z,2.72
2023-01-19T22:30:12.390Z,3.10
2023-01-19T22:32:39.144Z,3.00
2023-01-19T22:35:06.452Z,3.10
2023-01-19T22:37:35.622Z,3.22
2023-01-19T22:40:02.442Z,2.92
2023-01-19T22:42:29.445Z,3.42
2023-01-19T22:44:57.689Z,4.00
2023-01-19T22:47:24.674Z,2.60
2023-01-19T22:49:51.698Z,3.55
2023-01-19T22:52:22.450Z,3.30
2023-01-19T22:54:49.352Z,3.22
2023-01-19T22:57:16.255Z,3.13
2023-01-19T22:59:43.083Z,2.88
2023-01-19T23:02:11.745Z,2.15
2023-01-19T23:04:38.968Z,2.40
2023-01-19T23:07:06.331Z,2.25
2023-01-19T23:09:33.211Z,2.10
2023-01-19T23:12:01.400Z,2.00
2023-01-19T23:14:28.239Z,1.80
2023-01-19T23:16:59.286Z,2.00
2023-01-19T23:19:28.095Z,2.10
2023-01-19T23:21:55.940Z,1.88
2023-01-19T23:24:25.647Z,1.70
2023-01-19T23:26:52.483Z,1.83
2023-01-19T23:29:19.355Z,2.10
2023-01-19T23:31:47.621Z,2.20
2023-01-19T23:34:14.953Z,2.53
2023-01-19T23:36:47.143Z,3.03
2023-01-19T23:39:15.885Z,2.97
2023-01-19T23:41:44.841Z,3.40
2023-01-19T23:44:14.735Z,3.35
2023-01-19T23:46:42.038Z,3.20
2023-01-19T23:49:09.107Z,3.92
2023-01-19T23:51:35.993Z,4.20
2023-01-19T23:54:06.078Z,4.20
2023-01-19T23:56:34.990Z,4.57
2023-01-19T23:59:04.246Z,4.57
